sensor_id;sensor_type;location;lat;lon;timestamp;temperature;humidity
10581;DHT22;5338;51.500;6.802;2022-08-21T00:00:22;19.90;99.90
10581;DHT22;5338;51.500;6.802;2022-08-21T00:02:52;19.60;99.90
10581;DHT22;5338;51.500;6.802;2022-08-21T00:05:20;19.80;99.90
10581;DHT22;5338;51.500;6.802;2022-08-21T00:07:48;19.60;99.90
10581;DHT22;5338;51.500;6.802;2022-08-21T00:10:16;19.30;99.90
10581;DHT22;5338;51.500;6.802;2022-08-21T00:12:44;19.50;99.90
10581;DHT22;5338;51.500;6.802;2022-08-21T00:15:13;19.70;99.90
10581;DHT22;5338;51.500;6.802;2022-08-21T00:17:41;19.60;99.90
10581;DHT22;5338;51.500;6.802;2022-08-21T00:20:10;19.50;99.90
10581;DHT22;5338;51.500;6.802;2022-08-21T00:22:38;19.30;99.90
10581;DHT22;5338;51.500;6.802;2022-08-21T00:25:06;19.70;99.90
10581;DHT22;5338;51.500;6.802;2022-08-21T00:27:35;19.60;99.90
10581;DHT22;5338;51.500;6.802;2022-08-21T00:30:03;19.60;99.90
10581;DHT22;5338;51.500;6.802;2022-08-21T00:32:30;19.40;99.90
10581;DHT22;5338;51.500;6.802;2022-08-21T00:34:57;19.40;99.90
10581;DHT22;5338;51.500;6.802;2022-08-21T00:37:24;19.50;99.90
10581;DHT22;5338;51.500;6.802;2022-08-21T00:39:52;19.40;99.90
10581;DHT22;5338;51.500;6.802;2022-08-21T00:42:19;19.40;99.90
10581;DHT22;5338;51.500;6.802;2022-08-21T00:44:49;19.20;99.90
10581;DHT22;5338;51.500;6.802;2022-08-21T00:47:16;19.30;99.90
10581;DHT22;5338;51.500;6.802;2022-08-21T00:49:43;19.50;99.90
10581;DHT22;5338;51.500;6.802;2022-08-21T00:52:13;19.40;99.90
10581;DHT22;5338;51.500;6.802;2022-08-21T00:54:41;19.10;99.90
10581;DHT22;5338;51.500;6.802;2022-08-21T00:57:12;19.40;99.90
10581;DHT22;5338;51.500;6.802;2022-08-21T00:59:40;19.20;99.90
10581;DHT22;5338;51.500;6.802;2022-08-21T01:02:10;19.00;99.90
10581;DHT22;5338;51.500;6.802;2022-08-21T01:04:38;19.60;99.90
10581;DHT22;5338;51.500;6.802;2022-08-21T01:07:05;19.10;99.90
10581;DHT22;5338;51.500;6.802;2022-08-21T01:09:32;19.00;99.90
10581;DHT22;5338;51.500;6.802;2022-08-21T01:12:00;18.80;99.90
10581;DHT22;5338;51.500;6.802;2022-08-21T01:14:27;19.00;99.90
10581;DHT22;5338;51.500;6.802;2022-08-21T01:16:55;18.70;99.90
10581;DHT22;5338;51.500;6.802;2022-08-21T01:19:25;18.70;99.90
10581;DHT22;5338;51.500;6.802;2022-08-21T01:21:53;18.70;99.90
10581;DHT22;5338;51.500;6.802;2022-08-21T01:24:20;18.60;99.90
10581;DHT22;5338;51.500;6.802;2022-08-21T01:26:49;18.90;99.90
10581;DHT22;5338;51.500;6.802;2022-08-21T01:29:23;18.90;99.90
10581;DHT22;5338;51.500;6.802;2022-08-21T01:31:53;18.80;99.90
10581;DHT22;5338;51.500;6.802;2022-08-21T01:36:47;18.80;99.90
10581;DHT22;5338;51.500;6.802;2022-08-21T01:39:15;18.60;99.90
10581;DHT22;5338;51.500;6.802;2022-08-21T01:41:42;18.90;99.90
10581;DHT22;5338;51.500;6.802;2022-08-21T01:44:10;18.20;99.90
10581;DHT22;5338;51.500;6.802;2022-08-21T01:46:37;18.60;99.90
10581;DHT22;5338;51.500;6.802;2022-08-21T01:49:04;18.40;99.90
10581;DHT22;5338;51.500;6.802;2022-08-21T01:51:31;18.70;99.90
10581;DHT22;5338;51.500;6.802;2022-08-21T01:56:26;18.40;99.90
10581;DHT22;5338;51.500;6.802;2022-08-21T02:01:21;18.50;99.90
10581;DHT22;5338;51.500;6.802;2022-08-21T02:03:48;18.30;99.90
10581;DHT22;5338;51.500;6.802;2022-08-21T02:06:15;18.60;99.90
10581;DHT22;5338;51.500;6.802;2022-08-21T02:08:43;18.70;99.90
10581;DHT22;5338;51.500;6.802;2022-08-21T02:13:39;16.70;99.90
10581;DHT22;5338;51.500;6.802;2022-08-21T02:16:06;18.70;99.90
10581;DHT22;5338;51.500;6.802;2022-08-21T02:18:33;18.40;99.90
10581;DHT22;5338;51.500;6.802;2022-08-21T02:21:00;18.50;99.90
10581;DHT22;5338;51.500;6.802;2022-08-21T02:23:27;18.40;99.90
10581;DHT22;5338;51.500;6.802;2022-08-21T02:25:54;18.10;99.90
10581;DHT22;5338;51.500;6.802;2022-08-21T02:28:21;18.30;99.90
10581;DHT22;5338;51.500;6.802;2022-08-21T02:30:50;18.40;99.90
10581;DHT22;5338;51.500;6.802;2022-08-21T02:33:18;18.30;99.90
10581;DHT22;5338;51.500;6.802;2022-08-21T02:35:46;18.50;99.90
10581;DHT22;5338;51.500;6.802;2022-08-21T02:38:16;18.10;99.90
10581;DHT22;5338;51.500;6.802;2022-08-21T02:40:46;18.20;99.90
10581;DHT22;5338;51.500;6.802;2022-08-21T02:43:13;18.50;99.90
10581;DHT22;5338;51.500;6.802;2022-08-21T02:45:42;18.20;99.90
10581;DHT22;5338;51.500;6.802;2022-08-21T02:48:12;18.10;99.90
10581;DHT22;5338;51.500;6.802;2022-08-21T02:50:43;18.20;99.90
10581;DHT22;5338;51.500;6.802;2022-08-21T02:53:12;18.20;99.90
10581;DHT22;5338;51.500;6.802;2022-08-21T02:55:42;18.50;99.90
10581;DHT22;5338;51.500;6.802;2022-08-21T02:58:10;18.10;99.90
10581;DHT22;5338;51.500;6.802;2022-08-21T03:00:38;18.40;99.90
10581;DHT22;5338;51.500;6.802;2022-08-21T03:03:05;18.20;99.90
10581;DHT22;5338;51.500;6.802;2022-08-21T03:05:35;18.00;99.90
10581;DHT22;5338;51.500;6.802;2022-08-21T03:08:04;18.10;99.90
10581;DHT22;5338;51.500;6.802;2022-08-21T03:10:32;18.00;99.90
10581;DHT22;5338;51.500;6.802;2022-08-21T03:15:27;17.90;99.90
10581;DHT22;5338;51.500;6.802;2022-08-21T03:17:55;17.90;99.90
10581;DHT22;5338;51.500;6.802;2022-08-21T03:20:26;18.40;99.90
10581;DHT22;5338;51.500;6.802;2022-08-21T03:22:54;17.90;99.90
10581;DHT22;5338;51.500;6.802;2022-08-21T03:25:22;17.90;99.90
10581;DHT22;5338;51.500;6.802;2022-08-21T03:27:50;18.30;99.90
10581;DHT22;5338;51.500;6.802;2022-08-21T03:30:18;17.90;99.90
10581;DHT22;5338;51.500;6.802;2022-08-21T03:35:13;18.00;99.90
10581;DHT22;5338;51.500;6.802;2022-08-21T03:40:10;18.10;99.90
10581;DHT22;5338;51.500;6.802;2022-08-21T03:42:38;18.00;99.90
10581;DHT22;5338;51.500;6.802;2022-08-21T03:45:06;18.20;99.90
10581;DHT22;5338;51.500;6.802;2022-08-21T03:47:33;17.90;99.90
10581;DHT22;5338;51.500;6.802;2022-08-21T03:50:00;18.00;99.90
10581;DHT22;5338;51.500;6.802;2022-08-21T03:52:27;18.20;99.90
10581;DHT22;5338;51.500;6.802;2022-08-21T03:57:22;17.90;99.90
10581;DHT22;5338;51.500;6.802;2022-08-21T03:59:49;17.80;99.90
10581;DHT22;5338;51.500;6.802;2022-08-21T04:02:17;18.10;99.90
10581;DHT22;5338;51.500;6.802;2022-08-21T04:04:45;18.10;99.90
10581;DHT22;5338;51.500;6.802;2022-08-21T04:07:12;18.20;99.90
10581;DHT22;5338;51.500;6.802;2022-08-21T04:12:07;18.10;99.90
10581;DHT22;5338;51.500;6.802;2022-08-21T04:14:35;17.90;99.90
10581;DHT22;5338;51.500;6.802;2022-08-21T04:21:57;18.10;99.90
10581;DHT22;5338;51.500;6.802;2022-08-21T04:26:51;18.10;99.90
10581;DHT22;5338;51.500;6.802;2022-08-21T04:31:46;18.10;99.90
10581;DHT22;5338;51.500;6.802;2022-08-21T04:34:13;18.30;99.90
10581;DHT22;5338;51.500;6.802;2022-08-21T04:36:40;18.30;99.90
10581;DHT22;5338;51.500;6.802;2022-08-21T04:39:07;18.30;99.90
10581;DHT22;5338;51.500;6.802;2022-08-21T04:41:34;18.20;99.90
10581;DHT22;5338;51.500;6.802;2022-08-21T04:44:01;17.80;99.90
10581;DHT22;5338;51.500;6.802;2022-08-21T04:46:28;18.00;99.90
10581;DHT22;5338;51.500;6.802;2022-08-21T04:48:56;17.90;99.90
10581;DHT22;5338;51.500;6.802;2022-08-21T04:51:26;18.10;99.90
10581;DHT22;5338;51.500;6.802;2022-08-21T04:53:58;17.90;99.90
10581;DHT22;5338;51.500;6.802;2022-08-21T04:56:29;17.90;99.90
10581;DHT22;5338;51.500;6.802;2022-08-21T04:59:00;17.90;99.90
10581;DHT22;5338;51.500;6.802;2022-08-21T05:01:29;18.10;99.90
10581;DHT22;5338;51.500;6.802;2022-08-21T05:03:59;17.60;99.90
10581;DHT22;5338;51.500;6.802;2022-08-21T05:06:28;17.90;99.90
10581;DHT22;5338;51.500;6.802;2022-08-21T05:08:58;17.50;99.90
10581;DHT22;5338;51.500;6.802;2022-08-21T05:11:25;17.80;99.90
10581;DHT22;5338;51.500;6.802;2022-08-21T05:13:52;17.40;99.90
10581;DHT22;5338;51.500;6.802;2022-08-21T05:16:19;17.40;99.90
10581;DHT22;5338;51.500;6.802;2022-08-21T05:18:45;17.50;99.90
10581;DHT22;5338;51.500;6.802;2022-08-21T05:21:14;17.30;99.90
10581;DHT22;5338;51.500;6.802;2022-08-21T05:23:40;17.70;99.90
10581;DHT22;5338;51.500;6.802;2022-08-21T05:26:08;17.60;99.90
10581;DHT22;5338;51.500;6.802;2022-08-21T05:28:35;17.50;99.90
10581;DHT22;5338;51.500;6.802;2022-08-21T05:33:29;17.70;99.90
10581;DHT22;5338;51.500;6.802;2022-08-21T05:35:56;17.50;99.90
10581;DHT22;5338;51.500;6.802;2022-08-21T05:38:25;17.60;99.90
10581;DHT22;5338;51.500;6.802;2022-08-21T05:40:53;18.00;99.90
10581;DHT22;5338;51.500;6.802;2022-08-21T05:43:20;17.80;99.90
10581;DHT22;5338;51.500;6.802;2022-08-21T05:48:16;17.90;99.90
10581;DHT22;5338;51.500;6.802;2022-08-21T05:50:45;17.70;99.90
10581;DHT22;5338;51.500;6.802;2022-08-21T05:53:13;17.50;99.90
10581;DHT22;5338;51.500;6.802;2022-08-21T05:55:43;17.80;99.90
10581;DHT22;5338;51.500;6.802;2022-08-21T06:00:37;17.80;99.90
10581;DHT22;5338;51.500;6.802;2022-08-21T06:03:10;17.60;99.90
10581;DHT22;5338;51.500;6.802;2022-08-21T06:05:37;18.10;99.90
10581;DHT22;5338;51.500;6.802;2022-08-21T06:08:04;18.70;99.90
10581;DHT22;5338;51.500;6.802;2022-08-21T06:13:00;19.30;99.90
10581;DHT22;5338;51.500;6.802;2022-08-21T06:15:27;19.80;99.90
10581;DHT22;5338;51.500;6.802;2022-08-21T06:17:54;20.60;99.90
10581;DHT22;5338;51.500;6.802;2022-08-21T06:20:22;20.30;99.90
10581;DHT22;5338;51.500;6.802;2022-08-21T06:22:49;20.70;99.90
10581;DHT22;5338;51.500;6.802;2022-08-21T06:27:44;21.20;99.90
10581;DHT22;5338;51.500;6.802;2022-08-21T06:30:13;21.60;99.90
10581;DHT22;5338;51.500;6.802;2022-08-21T06:35:08;22.20;99.90
10581;DHT22;5338;51.500;6.802;2022-08-21T06:40:03;22.60;99.90
10581;DHT22;5338;51.500;6.802;2022-08-21T06:42:30;22.60;99.90
10581;DHT22;5338;51.500;6.802;2022-08-21T06:44:57;22.60;99.90
10581;DHT22;5338;51.500;6.802;2022-08-21T06:47:26;22.90;99.90
10581;DHT22;5338;51.500;6.802;2022-08-21T06:49:53;23.00;99.90
10581;DHT22;5338;51.500;6.802;2022-08-21T06:52:19;23.10;99.90
10581;DHT22;5338;51.500;6.802;2022-08-21T06:54:46;22.90;99.90
10581;DHT22;5338;51.500;6.802;2022-08-21T06:57:13;23.10;99.90
10581;DHT22;5338;51.500;6.802;2022-08-21T07:02:07;23.70;99.90
10581;DHT22;5338;51.500;6.802;2022-08-21T07:04:35;24.10;99.90
10581;DHT22;5338;51.500;6.802;2022-08-21T07:07:03;24.30;99.90
10581;DHT22;5338;51.500;6.802;2022-08-21T07:09:29;23.70;99.90
10581;DHT22;5338;51.500;6.802;2022-08-21T07:11:57;24.60;99.90
10581;DHT22;5338;51.500;6.802;2022-08-21T07:16:51;24.60;97.50
10581;DHT22;5338;51.500;6.802;2022-08-21T07:19:18;24.40;97.00
10581;DHT22;5338;51.500;6.802;2022-08-21T07:21:47;23.80;91.60
10581;DHT22;5338;51.500;6.802;2022-08-21T07:26:41;24.10;98.70
10581;DHT22;5338;51.500;6.802;2022-08-21T07:29:08;24.10;97.40
10581;DHT22;5338;51.500;6.802;2022-08-21T07:31:35;23.60;92.70
10581;DHT22;5338;51.500;6.802;2022-08-21T07:34:02;23.50;98.70
10581;DHT22;5338;51.500;6.802;2022-08-21T07:36:29;23.20;98.40
10581;DHT22;5338;51.500;6.802;2022-08-21T07:38:57;22.60;98.10
10581;DHT22;5338;51.500;6.802;2022-08-21T07:41:27;22.20;97.70
10581;DHT22;5338;51.500;6.802;2022-08-21T07:43:54;22.30;99.30
10581;DHT22;5338;51.500;6.802;2022-08-21T07:46:23;22.00;92.20
10581;DHT22;5338;51.500;6.802;2022-08-21T07:48:51;21.90;93.50
10581;DHT22;5338;51.500;6.802;2022-08-21T07:51:21;21.10;99.00
10581;DHT22;5338;51.500;6.802;2022-08-21T07:53:49;21.30;94.10
10581;DHT22;5338;51.500;6.802;2022-08-21T07:56:18;21.60;99.90
10581;DHT22;5338;51.500;6.802;2022-08-21T08:01:13;21.20;95.50
10581;DHT22;5338;51.500;6.802;2022-08-21T08:03:40;21.00;99.90
10581;DHT22;5338;51.500;6.802;2022-08-21T08:06:08;21.70;99.80
10581;DHT22;5338;51.500;6.802;2022-08-21T08:08:37;22.00;99.90
10581;DHT22;5338;51.500;6.802;2022-08-21T08:11:05;22.00;99.90
10581;DHT22;5338;51.500;6.802;2022-08-21T08:13:38;22.10;93.80
10581;DHT22;5338;51.500;6.802;2022-08-21T08:16:05;22.30;98.80
10581;DHT22;5338;51.500;6.802;2022-08-21T08:18:32;22.50;97.30
10581;DHT22;5338;51.500;6.802;2022-08-21T08:20:59;22.80;97.30
10581;DHT22;5338;51.500;6.802;2022-08-21T08:23:26;23.30;97.40
10581;DHT22;5338;51.500;6.802;2022-08-21T08:28:21;23.20;95.50
10581;DHT22;5338;51.500;6.802;2022-08-21T08:30:50;23.50;94.40
10581;DHT22;5338;51.500;6.802;2022-08-21T08:33:18;23.90;93.90
10581;DHT22;5338;51.500;6.802;2022-08-21T08:35:47;24.70;93.80
10581;DHT22;5338;51.500;6.802;2022-08-21T08:38:15;24.50;92.40
10581;DHT22;5338;51.500;6.802;2022-08-21T08:40:50;24.40;92.00
10581;DHT22;5338;51.500;6.802;2022-08-21T08:43:19;24.60;90.20
10581;DHT22;5338;51.500;6.802;2022-08-21T08:45:50;24.90;89.30
10581;DHT22;5338;51.500;6.802;2022-08-21T08:48:34;25.70;86.80
10581;DHT22;5338;51.500;6.802;2022-08-21T08:51:06;25.20;84.10
10581;DHT22;5338;51.500;6.802;2022-08-21T08:53:46;25.10;84.30
10581;DHT22;5338;51.500;6.802;2022-08-21T08:56:13;25.60;84.50
10581;DHT22;5338;51.500;6.802;2022-08-21T08:58:42;25.00;83.30
10581;DHT22;5338;51.500;6.802;2022-08-21T09:01:16;25.10;83.70
10581;DHT22;5338;51.500;6.802;2022-08-21T09:03:44;25.10;82.50
10581;DHT22;5338;51.500;6.802;2022-08-21T09:06:22;25.40;70.30
10581;DHT22;5338;51.500;6.802;2022-08-21T09:08:59;24.50;84.00
10581;DHT22;5338;51.500;6.802;2022-08-21T09:11:33;24.40;86.20
10581;DHT22;5338;51.500;6.802;2022-08-21T09:14:12;25.10;86.20
10581;DHT22;5338;51.500;6.802;2022-08-21T09:16:47;24.80;84.60
10581;DHT22;5338;51.500;6.802;2022-08-21T09:19:32;24.80;86.20
10581;DHT22;5338;51.500;6.802;2022-08-21T09:22:08;24.70;84.30
10581;DHT22;5338;51.500;6.802;2022-08-21T09:24:46;24.90;84.70
10581;DHT22;5338;51.500;6.802;2022-08-21T09:27:17;25.60;82.80
10581;DHT22;5338;51.500;6.802;2022-08-21T09:29:46;25.80;82.50
10581;DHT22;5338;51.500;6.802;2022-08-21T09:32:17;25.50;82.10
10581;DHT22;5338;51.500;6.802;2022-08-21T09:34:58;26.20;81.60
10581;DHT22;5338;51.500;6.802;2022-08-21T09:37:27;26.20;78.90
10581;DHT22;5338;51.500;6.802;2022-08-21T09:39:56;26.00;79.80
10581;DHT22;5338;51.500;6.802;2022-08-21T09:42:26;25.80;79.70
10581;DHT22;5338;51.500;6.802;2022-08-21T09:45:07;25.80;65.50
10581;DHT22;5338;51.500;6.802;2022-08-21T09:47:36;25.80;78.80
10581;DHT22;5338;51.500;6.802;2022-08-21T09:50:08;25.50;78.30
10581;DHT22;5338;51.500;6.802;2022-08-21T09:52:43;25.90;78.30
10581;DHT22;5338;51.500;6.802;2022-08-21T09:55:16;26.20;77.40
10581;DHT22;5338;51.500;6.802;2022-08-21T09:57:59;26.20;75.70
10581;DHT22;5338;51.500;6.802;2022-08-21T10:00:29;26.20;65.10
10581;DHT22;5338;51.500;6.802;2022-08-21T10:03:10;27.20;74.90
10581;DHT22;5338;51.500;6.802;2022-08-21T10:05:38;27.30;73.40
10581;DHT22;5338;51.500;6.802;2022-08-21T10:08:16;27.20;73.20
10581;DHT22;5338;51.500;6.802;2022-08-21T10:10:43;26.80;74.20
10581;DHT22;5338;51.500;6.802;2022-08-21T10:13:14;26.00;75.40
10581;DHT22;5338;51.500;6.802;2022-08-21T10:15:54;26.30;75.80
10581;DHT22;5338;51.500;6.802;2022-08-21T10:18:29;25.80;73.40
10581;DHT22;5338;51.500;6.802;2022-08-21T10:21:04;26.90;73.00
10581;DHT22;5338;51.500;6.802;2022-08-21T10:23:44;27.10;71.30
10581;DHT22;5338;51.500;6.802;2022-08-21T10:26:26;27.30;70.10
10581;DHT22;5338;51.500;6.802;2022-08-21T10:29:02;27.50;68.00
10581;DHT22;5338;51.500;6.802;2022-08-21T10:31:38;28.00;68.50
10581;DHT22;5338;51.500;6.802;2022-08-21T10:34:22;27.60;67.40
10581;DHT22;5338;51.500;6.802;2022-08-21T10:37:05;27.90;68.50
10581;DHT22;5338;51.500;6.802;2022-08-21T10:39:35;27.30;68.10
10581;DHT22;5338;51.500;6.802;2022-08-21T10:42:19;27.10;64.30
10581;DHT22;5338;51.500;6.802;2022-08-21T10:44:57;26.80;69.00
10581;DHT22;5338;51.500;6.802;2022-08-21T10:47:32;26.50;69.40
10581;DHT22;5338;51.500;6.802;2022-08-21T10:50:10;27.30;70.20
10581;DHT22;5338;51.500;6.802;2022-08-21T10:53:00;27.30;64.00
10581;DHT22;5338;51.500;6.802;2022-08-21T10:55:32;27.40;69.00
10581;DHT22;5338;51.500;6.802;2022-08-21T10:58:04;28.20;67.40
10581;DHT22;5338;51.500;6.802;2022-08-21T11:00:40;28.10;65.80
10581;DHT22;5338;51.500;6.802;2022-08-21T11:03:12;27.50;66.10
10581;DHT22;5338;51.500;6.802;2022-08-21T11:05:43;28.00;67.50
10581;DHT22;5338;51.500;6.802;2022-08-21T11:08:17;27.80;66.80
10581;DHT22;5338;51.500;6.802;2022-08-21T11:10:48;27.20;59.00
10581;DHT22;5338;51.500;6.802;2022-08-21T11:13:21;26.70;67.70
10581;DHT22;5338;51.500;6.802;2022-08-21T11:15:56;27.20;69.00
10581;DHT22;5338;51.500;6.802;2022-08-21T11:18:28;26.70;56.60
10581;DHT22;5338;51.500;6.802;2022-08-21T11:21:26;26.60;69.30
10581;DHT22;5338;51.500;6.802;2022-08-21T11:23:59;26.40;64.30
10581;DHT22;5338;51.500;6.802;2022-08-21T11:26:32;26.90;69.40
10581;DHT22;5338;51.500;6.802;2022-08-21T11:29:06;26.40;61.10
10581;DHT22;5338;51.500;6.802;2022-08-21T11:31:53;27.10;69.10
10581;DHT22;5338;51.500;6.802;2022-08-21T11:34:34;26.90;67.30
10581;DHT22;5338;51.500;6.802;2022-08-21T11:37:10;26.60;65.50
10581;DHT22;5338;51.500;6.802;2022-08-21T11:39:46;28.00;65.80
10581;DHT22;5338;51.500;6.802;2022-08-21T11:42:27;28.00;52.50
10581;DHT22;5338;51.500;6.802;2022-08-21T11:45:09;27.90;63.10
10581;DHT22;5338;51.500;6.802;2022-08-21T11:47:49;27.90;61.90
10581;DHT22;5338;51.500;6.802;2022-08-21T11:50:23;28.50;61.70
10581;DHT22;5338;51.500;6.802;2022-08-21T11:52:58;27.80;50.40
10581;DHT22;5338;51.500;6.802;2022-08-21T11:55:30;27.60;61.60
10581;DHT22;5338;51.500;6.802;2022-08-21T11:58:02;27.60;60.50
10581;DHT22;5338;51.500;6.802;2022-08-21T12:00:34;28.00;62.20
10581;DHT22;5338;51.500;6.802;2022-08-21T12:03:08;27.30;52.10
10581;DHT22;5338;51.500;6.802;2022-08-21T12:05:39;27.30;63.40
10581;DHT22;5338;51.500;6.802;2022-08-21T12:08:12;27.20;58.00
10581;DHT22;5338;51.500;6.802;2022-08-21T12:10:41;28.30;65.10
10581;DHT22;5338;51.500;6.802;2022-08-21T12:13:10;28.20;62.90
10581;DHT22;5338;51.500;6.802;2022-08-21T12:18:21;28.10;60.90
10581;DHT22;5338;51.500;6.802;2022-08-21T12:21:00;27.30;61.20
10581;DHT22;5338;51.500;6.802;2022-08-21T12:23:31;27.50;63.10
10581;DHT22;5338;51.500;6.802;2022-08-21T12:26:01;28.10;62.40
10581;DHT22;5338;51.500;6.802;2022-08-21T12:28:30;27.80;51.60
10581;DHT22;5338;51.500;6.802;2022-08-21T12:30:58;27.20;52.00
10581;DHT22;5338;51.500;6.802;2022-08-21T12:33:28;27.40;64.20
10581;DHT22;5338;51.500;6.802;2022-08-21T12:36:04;27.20;56.20
10581;DHT22;5338;51.500;6.802;2022-08-21T12:38:42;27.80;50.90
10581;DHT22;5338;51.500;6.802;2022-08-21T12:41:17;27.30;60.20
10581;DHT22;5338;51.500;6.802;2022-08-21T12:43:48;27.80;63.00
10581;DHT22;5338;51.500;6.802;2022-08-21T12:46:19;27.10;63.60
10581;DHT22;5338;51.500;6.802;2022-08-21T12:48:51;26.90;64.40
10581;DHT22;5338;51.500;6.802;2022-08-21T12:51:23;27.20;54.00
10581;DHT22;5338;51.500;6.802;2022-08-21T12:53:54;28.30;64.00
10581;DHT22;5338;51.500;6.802;2022-08-21T12:56:23;27.80;61.00
10581;DHT22;5338;51.500;6.802;2022-08-21T12:58:53;28.70;61.10
10581;DHT22;5338;51.500;6.802;2022-08-21T13:01:23;28.90;59.60
10581;DHT22;5338;51.500;6.802;2022-08-21T13:03:51;28.20;57.60
10581;DHT22;5338;51.500;6.802;2022-08-21T13:06:20;28.60;58.00
10581;DHT22;5338;51.500;6.802;2022-08-21T13:08:55;28.40;58.60
10581;DHT22;5338;51.500;6.802;2022-08-21T13:11:23;28.30;58.80
10581;DHT22;5338;51.500;6.802;2022-08-21T13:13:52;27.60;59.20
10581;DHT22;5338;51.500;6.802;2022-08-21T13:16:23;27.90;59.80
10581;DHT22;5338;51.500;6.802;2022-08-21T13:18:54;27.90;59.50
10581;DHT22;5338;51.500;6.802;2022-08-21T13:21:21;28.10;59.90
10581;DHT22;5338;51.500;6.802;2022-08-21T13:23:54;27.70;59.10
10581;DHT22;5338;51.500;6.802;2022-08-21T13:26:22;25.70;59.30
10581;DHT22;5338;51.500;6.802;2022-08-21T13:28:49;27.30;53.80
10581;DHT22;5338;51.500;6.802;2022-08-21T13:31:20;27.50;50.30
10581;DHT22;5338;51.500;6.802;2022-08-21T13:33:48;27.40;60.60
10581;DHT22;5338;51.500;6.802;2022-08-21T13:36:20;27.60;60.10
10581;DHT22;5338;51.500;6.802;2022-08-21T13:38:48;28.60;52.40
10581;DHT22;5338;51.500;6.802;2022-08-21T13:41:24;28.30;59.90
10581;DHT22;5338;51.500;6.802;2022-08-21T13:43:58;28.00;59.10
10581;DHT22;5338;51.500;6.802;2022-08-21T13:46:29;28.40;59.50
10581;DHT22;5338;51.500;6.802;2022-08-21T13:48:58;28.60;57.80
10581;DHT22;5338;51.500;6.802;2022-08-21T13:51:26;27.90;58.10
10581;DHT22;5338;51.500;6.802;2022-08-21T13:53:53;28.10;47.50
10581;DHT22;5338;51.500;6.802;2022-08-21T13:56:25;27.30;59.10
10581;DHT22;5338;51.500;6.802;2022-08-21T13:58:53;27.10;61.00
10581;DHT22;5338;51.500;6.802;2022-08-21T14:01:25;26.60;57.70
10581;DHT22;5338;51.500;6.802;2022-08-21T14:03:55;26.80;63.50
10581;DHT22;5338;51.500;6.802;2022-08-21T14:06:27;26.30;64.00
10581;DHT22;5338;51.500;6.802;2022-08-21T14:08:57;26.40;61.20
10581;DHT22;5338;51.500;6.802;2022-08-21T14:11:31;26.40;65.10
10581;DHT22;5338;51.500;6.802;2022-08-21T14:14:02;26.30;66.90
10581;DHT22;5338;51.500;6.802;2022-08-21T14:16:42;26.10;56.30
10581;DHT22;5338;51.500;6.802;2022-08-21T14:19:17;26.00;66.30
10581;DHT22;5338;51.500;6.802;2022-08-21T14:21:45;25.90;54.10
10581;DHT22;5338;51.500;6.802;2022-08-21T14:24:24;25.90;58.50
10581;DHT22;5338;51.500;6.802;2022-08-21T14:26:54;25.70;66.20
10581;DHT22;5338;51.500;6.802;2022-08-21T14:29:24;26.00;65.80
10581;DHT22;5338;51.500;6.802;2022-08-21T14:31:55;26.40;64.50
10581;DHT22;5338;51.500;6.802;2022-08-21T14:34:24;26.00;64.90
10581;DHT22;5338;51.500;6.802;2022-08-21T14:36:51;26.20;64.70
10581;DHT22;5338;51.500;6.802;2022-08-21T14:39:19;26.90;66.00
10581;DHT22;5338;51.500;6.802;2022-08-21T14:41:46;23.40;62.00
10581;DHT22;5338;51.500;6.802;2022-08-21T14:44:16;27.40;65.00
10581;DHT22;5338;51.500;6.802;2022-08-21T14:46:43;27.70;64.90
10581;DHT22;5338;51.500;6.802;2022-08-21T14:51:38;27.60;63.70
10581;DHT22;5338;51.500;6.802;2022-08-21T14:54:05;28.30;54.20
10581;DHT22;5338;51.500;6.802;2022-08-21T14:56:32;27.60;61.80
10581;DHT22;5338;51.500;6.802;2022-08-21T14:59:02;27.50;51.20
10581;DHT22;5338;51.500;6.802;2022-08-21T15:01:32;27.90;63.40
10581;DHT22;5338;51.500;6.802;2022-08-21T15:04:00;27.80;62.90
10581;DHT22;5338;51.500;6.802;2022-08-21T15:06:27;27.90;64.50
10581;DHT22;5338;51.500;6.802;2022-08-21T15:08:54;27.20;63.20
10581;DHT22;5338;51.500;6.802;2022-08-21T15:11:23;27.60;52.50
10581;DHT22;5338;51.500;6.802;2022-08-21T15:13:55;27.40;63.70
10581;DHT22;5338;51.500;6.802;2022-08-21T15:16:23;27.70;62.00
10581;DHT22;5338;51.500;6.802;2022-08-21T15:18:51;27.40;62.40
10581;DHT22;5338;51.500;6.802;2022-08-21T15:21:18;27.50;66.20
10581;DHT22;5338;51.500;6.802;2022-08-21T15:23:45;26.80;65.10
10581;DHT22;5338;51.500;6.802;2022-08-21T15:28:39;26.90;64.50
10581;DHT22;5338;51.500;6.802;2022-08-21T15:31:06;27.40;53.70
10581;DHT22;5338;51.500;6.802;2022-08-21T15:33:34;26.60;64.30
10581;DHT22;5338;51.500;6.802;2022-08-21T15:36:02;26.90;60.00
10581;DHT22;5338;51.500;6.802;2022-08-21T15:40:57;26.40;61.50
10581;DHT22;5338;51.500;6.802;2022-08-21T15:43:25;26.70;51.70
10581;DHT22;5338;51.500;6.802;2022-08-21T15:45:53;26.40;63.80
10581;DHT22;5338;51.500;6.802;2022-08-21T15:48:20;24.40;50.40
10581;DHT22;5338;51.500;6.802;2022-08-21T15:50:47;26.50;62.60
10581;DHT22;5338;51.500;6.802;2022-08-21T15:53:16;26.50;62.60
10581;DHT22;5338;51.500;6.802;2022-08-21T15:55:43;26.20;55.10
10581;DHT22;5338;51.500;6.802;2022-08-21T15:58:13;26.30;61.80
10581;DHT22;5338;51.500;6.802;2022-08-21T16:00:42;26.50;61.90
10581;DHT22;5338;51.500;6.802;2022-08-21T16:03:12;26.70;62.00
10581;DHT22;5338;51.500;6.802;2022-08-21T16:05:42;26.10;52.40
10581;DHT22;5338;51.500;6.802;2022-08-21T16:08:10;27.80;62.80
10581;DHT22;5338;51.500;6.802;2022-08-21T16:10:39;27.10;61.80
10581;DHT22;5338;51.500;6.802;2022-08-21T16:15:50;26.40;61.80
10581;DHT22;5338;51.500;6.802;2022-08-21T16:18:17;25.70;52.50
10581;DHT22;5338;51.500;6.802;2022-08-21T16:20:44;26.00;61.50
10581;DHT22;5338;51.500;6.802;2022-08-21T16:23:12;26.00;60.40
10581;DHT22;5338;51.500;6.802;2022-08-21T16:25:40;26.40;50.60
10581;DHT22;5338;51.500;6.802;2022-08-21T16:28:09;25.90;59.60
10581;DHT22;5338;51.500;6.802;2022-08-21T16:30:37;26.00;60.30
10581;DHT22;5338;51.500;6.802;2022-08-21T16:33:05;26.10;58.80
10581;DHT22;5338;51.500;6.802;2022-08-21T16:35:33;25.70;60.50
10581;DHT22;5338;51.500;6.802;2022-08-21T16:38:00;25.70;60.00
10581;DHT22;5338;51.500;6.802;2022-08-21T16:40:28;26.00;57.10
10581;DHT22;5338;51.500;6.802;2022-08-21T16:42:56;25.60;59.00
10581;DHT22;5338;51.500;6.802;2022-08-21T16:47:50;25.40;59.40
10581;DHT22;5338;51.500;6.802;2022-08-21T16:50:20;25.50;59.70
10581;DHT22;5338;51.500;6.802;2022-08-21T16:52:47;24.10;58.00
10581;DHT22;5338;51.500;6.802;2022-08-21T16:57:42;25.50;60.00
10581;DHT22;5338;51.500;6.802;2022-08-21T17:00:11;25.30;50.30
10581;DHT22;5338;51.500;6.802;2022-08-21T17:02:41;25.40;61.60
10581;DHT22;5338;51.500;6.802;2022-08-21T17:05:09;24.80;61.20
10581;DHT22;5338;51.500;6.802;2022-08-21T17:07:38;24.70;54.60
10581;DHT22;5338;51.500;6.802;2022-08-21T17:10:06;24.70;61.40
10581;DHT22;5338;51.500;6.802;2022-08-21T17:12:34;25.20;62.70
10581;DHT22;5338;51.500;6.802;2022-08-21T17:15:05;25.20;63.40
10581;DHT22;5338;51.500;6.802;2022-08-21T17:17:34;24.70;52.20
10581;DHT22;5338;51.500;6.802;2022-08-21T17:22:28;24.40;64.30